Terminal Aerodrome Forecast
Issued by NWS

Home | Current Version | Previous Version | Text Only | Print | Product List | Glossary On
Versions: 1 2 3 4 5 6 7 8 9 10 11 12 13 14 15 16 17 18 19 20
000
FTUS41 KBGM 261346 AAA
TAFRME
TAF AMD
KRME 261346Z 2614/2712 VRB05KT P6SM SKC
     FM261600 30011KT P6SM BKN050
     FM270100 VRB03KT P6SM OVC040
     FM270900 VRB03KT P6SM -RASN OVC040
      TEMPO 2709/2712 OVC020=

USA.gov is the U.S. government's official web portal to all federal, state and local government web resources and services.